sensor_id;sensor_type;location;lat;lon;timestamp;P1;durP1;ratioP1;P2;durP2;ratioP2
40244;SDS011;25963;42.694;23.600;2023-03-23T00:01:10;70.75;;;28.15;;
40244;SDS011;25963;42.694;23.600;2023-03-23T00:03:44;74.03;;;29.95;;
40244;SDS011;25963;42.694;23.600;2023-03-23T00:06:11;172.90;;;33.15;;
40244;SDS011;25963;42.694;23.600;2023-03-23T00:08:42;128.45;;;33.72;;
40244;SDS011;25963;42.694;23.600;2023-03-23T00:11:12;107.68;;;33.65;;
40244;SDS011;25963;42.694;23.600;2023-03-23T00:13:43;141.70;;;33.67;;
40244;SDS011;25963;42.694;23.600;2023-03-23T00:16:10;128.60;;;35.03;;
40244;SDS011;25963;42.694;23.600;2023-03-23T00:18:46;141.18;;;34.85;;
40244;SDS011;25963;42.694;23.600;2023-03-23T00:21:17;182.35;;;37.78;;
40244;SDS011;25963;42.694;23.600;2023-03-23T00:24:03;200.13;;;37.72;;
40244;SDS011;25963;42.694;23.600;2023-03-23T00:26:35;189.40;;;35.40;;
40244;SDS011;25963;42.694;23.600;2023-03-23T00:29:04;142.00;;;32.78;;
40244;SDS011;25963;42.694;23.600;2023-03-23T00:31:51;145.90;;;29.90;;
40244;SDS011;25963;42.694;23.600;2023-03-23T00:34:18;134.90;;;31.30;;
40244;SDS011;25963;42.694;23.600;2023-03-23T00:36:49;163.00;;;33.47;;
40244;SDS011;25963;42.694;23.600;2023-03-23T00:39:16;192.60;;;33.67;;
40244;SDS011;25963;42.694;23.600;2023-03-23T00:41:43;166.95;;;31.20;;
40244;SDS011;25963;42.694;23.600;2023-03-23T00:44:09;205.40;;;30.20;;
40244;SDS011;25963;42.694;23.600;2023-03-23T00:46:34;124.47;;;26.55;;
40244;SDS011;25963;42.694;23.600;2023-03-23T00:49:09;203.63;;;30.38;;
40244;SDS011;25963;42.694;23.600;2023-03-23T00:51:37;99.70;;;21.80;;
40244;SDS011;25963;42.694;23.600;2023-03-23T00:54:02;117.38;;;26.33;;
40244;SDS011;25963;42.694;23.600;2023-03-23T00:56:28;137.75;;;27.60;;
40244;SDS011;25963;42.694;23.600;2023-03-23T00:58:53;146.10;;;30.40;;
40244;SDS011;25963;42.694;23.600;2023-03-23T01:01:19;93.53;;;28.52;;
40244;SDS011;25963;42.694;23.600;2023-03-23T01:03:44;106.47;;;29.08;;
40244;SDS011;25963;42.694;23.600;2023-03-23T01:06:11;53.58;;;27.45;;
40244;SDS011;25963;42.694;23.600;2023-03-23T01:08:39;46.40;;;25.77;;
40244;SDS011;25963;42.694;23.600;2023-03-23T01:11:13;42.17;;;25.48;;
40244;SDS011;25963;42.694;23.600;2023-03-23T01:13:40;43.10;;;27.45;;
40244;SDS011;25963;42.694;23.600;2023-03-23T01:16:09;57.22;;;31.08;;
40244;SDS011;25963;42.694;23.600;2023-03-23T01:18:36;64.88;;;38.45;;
40244;SDS011;25963;42.694;23.600;2023-03-23T01:21:03;128.57;;;45.97;;
40244;SDS011;25963;42.694;23.600;2023-03-23T01:23:33;209.80;;;37.67;;
40244;SDS011;25963;42.694;23.600;2023-03-23T01:28:34;146.75;;;36.65;;
40244;SDS011;25963;42.694;23.600;2023-03-23T01:31:01;124.25;;;39.55;;
40244;SDS011;25963;42.694;23.600;2023-03-23T01:33:36;121.88;;;36.22;;
40244;SDS011;25963;42.694;23.600;2023-03-23T01:36:07;181.13;;;41.88;;
40244;SDS011;25963;42.694;23.600;2023-03-23T01:38:35;176.30;;;42.53;;
40244;SDS011;25963;42.694;23.600;2023-03-23T01:41:01;146.05;;;39.08;;
40244;SDS011;25963;42.694;23.600;2023-03-23T01:43:27;145.82;;;39.83;;
40244;SDS011;25963;42.694;23.600;2023-03-23T01:45:53;154.48;;;40.30;;
40244;SDS011;25963;42.694;23.600;2023-03-23T01:48:40;163.98;;;40.72;;
40244;SDS011;25963;42.694;23.600;2023-03-23T01:51:09;138.25;;;37.95;;
40244;SDS011;25963;42.694;23.600;2023-03-23T01:53:40;217.80;;;43.50;;
40244;SDS011;25963;42.694;23.600;2023-03-23T01:58:38;162.85;;;41.85;;
40244;SDS011;25963;42.694;23.600;2023-03-23T02:01:05;96.75;;;35.03;;
40244;SDS011;25963;42.694;23.600;2023-03-23T02:03:32;91.20;;;32.05;;
40244;SDS011;25963;42.694;23.600;2023-03-23T02:06:01;84.78;;;35.55;;
40244;SDS011;25963;42.694;23.600;2023-03-23T02:08:27;153.93;;;42.70;;
40244;SDS011;25963;42.694;23.600;2023-03-23T02:10:54;107.15;;;39.65;;
40244;SDS011;25963;42.694;23.600;2023-03-23T02:13:20;101.40;;;36.10;;
40244;SDS011;25963;42.694;23.600;2023-03-23T02:18:53;181.02;;;39.10;;
40244;SDS011;25963;42.694;23.600;2023-03-23T02:24:25;162.35;;;40.33;;
40244;SDS011;25963;42.694;23.600;2023-03-23T02:27:04;230.20;;;42.40;;
40244;SDS011;25963;42.694;23.600;2023-03-23T02:35:27;243.88;;;40.03;;
40244;SDS011;25963;42.694;23.600;2023-03-23T02:38:00;197.50;;;37.40;;
40244;SDS011;25963;42.694;23.600;2023-03-23T02:40:30;228.00;;;37.50;;
40244;SDS011;25963;42.694;23.600;2023-03-23T02:43:06;201.32;;;35.55;;
40244;SDS011;25963;42.694;23.600;2023-03-23T02:45:35;275.52;;;39.33;;
40244;SDS011;25963;42.694;23.600;2023-03-23T02:48:02;277.13;;;43.63;;
40244;SDS011;25963;42.694;23.600;2023-03-23T02:50:30;118.43;;;31.63;;
40244;SDS011;25963;42.694;23.600;2023-03-23T02:52:57;178.05;;;34.88;;
40244;SDS011;25963;42.694;23.600;2023-03-23T02:55:25;130.77;;;29.15;;
40244;SDS011;25963;42.694;23.600;2023-03-23T02:57:54;89.38;;;25.98;;
40244;SDS011;25963;42.694;23.600;2023-03-23T03:00:20;95.88;;;28.33;;
40244;SDS011;25963;42.694;23.600;2023-03-23T03:02:47;102.97;;;30.00;;
40244;SDS011;25963;42.694;23.600;2023-03-23T03:08:00;89.43;;;27.13;;
40244;SDS011;25963;42.694;23.600;2023-03-23T03:10:28;203.73;;;36.03;;
40244;SDS011;25963;42.694;23.600;2023-03-23T03:16:38;152.02;;;31.30;;
40244;SDS011;25963;42.694;23.600;2023-03-23T03:19:15;121.18;;;29.80;;
40244;SDS011;25963;42.694;23.600;2023-03-23T03:21:45;119.88;;;32.75;;
40244;SDS011;25963;42.694;23.600;2023-03-23T03:24:14;97.40;;;32.53;;
40244;SDS011;25963;42.694;23.600;2023-03-23T03:26:43;81.00;;;32.63;;
40244;SDS011;25963;42.694;23.600;2023-03-23T03:29:16;69.63;;;29.00;;
40244;SDS011;25963;42.694;23.600;2023-03-23T03:31:43;71.20;;;30.92;;
40244;SDS011;25963;42.694;23.600;2023-03-23T03:34:11;68.53;;;28.17;;
40244;SDS011;25963;42.694;23.600;2023-03-23T03:36:42;63.17;;;26.30;;
40244;SDS011;25963;42.694;23.600;2023-03-23T03:39:11;43.15;;;22.27;;
40244;SDS011;25963;42.694;23.600;2023-03-23T03:41:37;35.05;;;19.67;;
40244;SDS011;25963;42.694;23.600;2023-03-23T03:44:04;30.25;;;18.25;;
40244;SDS011;25963;42.694;23.600;2023-03-23T03:46:31;36.53;;;20.50;;
40244;SDS011;25963;42.694;23.600;2023-03-23T03:48:58;56.95;;;32.45;;
40244;SDS011;25963;42.694;23.600;2023-03-23T03:51:24;60.20;;;31.02;;
40244;SDS011;25963;42.694;23.600;2023-03-23T03:53:50;53.35;;;30.30;;
40244;SDS011;25963;42.694;23.600;2023-03-23T03:56:16;49.90;;;28.98;;
40244;SDS011;25963;42.694;23.600;2023-03-23T03:58:42;47.17;;;29.27;;
40244;SDS011;25963;42.694;23.600;2023-03-23T04:01:08;52.95;;;29.00;;
40244;SDS011;25963;42.694;23.600;2023-03-23T04:03:37;51.28;;;27.08;;
40244;SDS011;25963;42.694;23.600;2023-03-23T04:06:03;55.63;;;28.20;;
40244;SDS011;25963;42.694;23.600;2023-03-23T04:08:30;52.30;;;29.55;;
40244;SDS011;25963;42.694;23.600;2023-03-23T04:10:56;54.05;;;27.90;;
40244;SDS011;25963;42.694;23.600;2023-03-23T04:13:22;56.38;;;28.33;;
40244;SDS011;25963;42.694;23.600;2023-03-23T04:15:48;59.50;;;28.10;;
40244;SDS011;25963;42.694;23.600;2023-03-23T04:18:14;65.72;;;28.73;;
40244;SDS011;25963;42.694;23.600;2023-03-23T04:20:42;109.68;;;31.55;;
40244;SDS011;25963;42.694;23.600;2023-03-23T04:23:09;98.53;;;37.38;;
40244;SDS011;25963;42.694;23.600;2023-03-23T04:25:35;132.90;;;38.78;;
40244;SDS011;25963;42.694;23.600;2023-03-23T04:28:00;82.82;;;38.33;;
40244;SDS011;25963;42.694;23.600;2023-03-23T04:30:27;118.45;;;41.05;;
40244;SDS011;25963;42.694;23.600;2023-03-23T04:32:55;133.07;;;42.90;;
40244;SDS011;25963;42.694;23.600;2023-03-23T04:35:22;146.80;;;44.03;;
40244;SDS011;25963;42.694;23.600;2023-03-23T04:37:53;169.63;;;40.90;;
40244;SDS011;25963;42.694;23.600;2023-03-23T04:40:19;103.35;;;38.88;;
40244;SDS011;25963;42.694;23.600;2023-03-23T04:42:45;129.45;;;45.90;;
40244;SDS011;25963;42.694;23.600;2023-03-23T04:45:12;110.60;;;36.28;;
40244;SDS011;25963;42.694;23.600;2023-03-23T04:47:39;145.95;;;40.78;;
40244;SDS011;25963;42.694;23.600;2023-03-23T04:50:09;124.82;;;36.65;;
40244;SDS011;25963;42.694;23.600;2023-03-23T04:52:39;148.90;;;43.00;;
40244;SDS011;25963;42.694;23.600;2023-03-23T04:55:10;126.53;;;37.85;;
40244;SDS011;25963;42.694;23.600;2023-03-23T04:57:36;119.18;;;38.88;;
40244;SDS011;25963;42.694;23.600;2023-03-23T05:00:03;147.25;;;40.08;;
40244;SDS011;25963;42.694;23.600;2023-03-23T05:02:34;106.60;;;37.45;;
40244;SDS011;25963;42.694;23.600;2023-03-23T05:05:04;98.93;;;36.30;;
40244;SDS011;25963;42.694;23.600;2023-03-23T05:07:31;103.93;;;40.33;;
40244;SDS011;25963;42.694;23.600;2023-03-23T05:09:56;77.72;;;33.72;;
40244;SDS011;25963;42.694;23.600;2023-03-23T05:12:22;76.05;;;36.80;;
40244;SDS011;25963;42.694;23.600;2023-03-23T05:14:47;75.45;;;35.00;;
40244;SDS011;25963;42.694;23.600;2023-03-23T05:17:13;66.75;;;31.38;;
40244;SDS011;25963;42.694;23.600;2023-03-23T05:19:42;68.55;;;32.42;;
40244;SDS011;25963;42.694;23.600;2023-03-23T05:22:09;64.60;;;32.53;;
40244;SDS011;25963;42.694;23.600;2023-03-23T05:24:37;69.40;;;33.95;;
40244;SDS011;25963;42.694;23.600;2023-03-23T05:27:03;83.82;;;38.30;;
40244;SDS011;25963;42.694;23.600;2023-03-23T05:29:28;98.82;;;43.55;;
40244;SDS011;25963;42.694;23.600;2023-03-23T05:31:58;95.95;;;47.45;;
40244;SDS011;25963;42.694;23.600;2023-03-23T05:34:27;101.53;;;46.72;;
40244;SDS011;25963;42.694;23.600;2023-03-23T05:36:54;99.47;;;44.40;;
40244;SDS011;25963;42.694;23.600;2023-03-23T05:39:20;82.28;;;37.63;;
40244;SDS011;25963;42.694;23.600;2023-03-23T05:41:46;74.78;;;35.30;;
40244;SDS011;25963;42.694;23.600;2023-03-23T05:44:11;70.53;;;35.55;;
40244;SDS011;25963;42.694;23.600;2023-03-23T05:46:38;74.80;;;38.42;;
40244;SDS011;25963;42.694;23.600;2023-03-23T05:49:04;68.57;;;36.15;;
40244;SDS011;25963;42.694;23.600;2023-03-23T05:51:29;74.13;;;34.38;;
40244;SDS011;25963;42.694;23.600;2023-03-23T05:53:55;66.90;;;35.00;;
40244;SDS011;25963;42.694;23.600;2023-03-23T05:56:20;68.85;;;36.13;;
40244;SDS011;25963;42.694;23.600;2023-03-23T05:58:46;66.80;;;34.60;;
40244;SDS011;25963;42.694;23.600;2023-03-23T06:01:11;70.20;;;34.65;;
40244;SDS011;25963;42.694;23.600;2023-03-23T06:03:41;76.38;;;40.65;;
40244;SDS011;25963;42.694;23.600;2023-03-23T06:06:08;74.05;;;35.97;;
40244;SDS011;25963;42.694;23.600;2023-03-23T06:08:35;78.25;;;41.25;;
40244;SDS011;25963;42.694;23.600;2023-03-23T06:11:02;91.10;;;45.75;;
40244;SDS011;25963;42.694;23.600;2023-03-23T06:13:27;75.97;;;41.28;;
40244;SDS011;25963;42.694;23.600;2023-03-23T06:15:56;70.75;;;37.40;;
40244;SDS011;25963;42.694;23.600;2023-03-23T06:18:22;73.97;;;36.97;;
40244;SDS011;25963;42.694;23.600;2023-03-23T06:20:51;72.05;;;35.42;;
40244;SDS011;25963;42.694;23.600;2023-03-23T06:23:17;66.90;;;36.33;;
40244;SDS011;25963;42.694;23.600;2023-03-23T06:25:42;65.57;;;35.25;;
40244;SDS011;25963;42.694;23.600;2023-03-23T06:28:09;63.63;;;35.15;;
40244;SDS011;25963;42.694;23.600;2023-03-23T06:30:35;69.07;;;37.58;;
40244;SDS011;25963;42.694;23.600;2023-03-23T06:33:01;77.35;;;39.92;;
40244;SDS011;25963;42.694;23.600;2023-03-23T06:35:30;56.38;;;32.50;;
40244;SDS011;25963;42.694;23.600;2023-03-23T06:37:56;68.70;;;37.92;;
40244;SDS011;25963;42.694;23.600;2023-03-23T06:40:23;66.50;;;38.80;;
40244;SDS011;25963;42.694;23.600;2023-03-23T06:42:48;59.03;;;35.63;;
40244;SDS011;25963;42.694;23.600;2023-03-23T06:45:14;50.40;;;30.75;;
40244;SDS011;25963;42.694;23.600;2023-03-23T06:50:35;57.10;;;33.38;;
40244;SDS011;25963;42.694;23.600;2023-03-23T06:53:01;128.38;;;57.97;;
40244;SDS011;25963;42.694;23.600;2023-03-23T06:55:26;92.95;;;46.40;;
40244;SDS011;25963;42.694;23.600;2023-03-23T06:57:52;50.63;;;30.02;;
40244;SDS011;25963;42.694;23.600;2023-03-23T07:00:18;44.13;;;27.35;;
40244;SDS011;25963;42.694;23.600;2023-03-23T07:02:43;37.30;;;25.25;;
40244;SDS011;25963;42.694;23.600;2023-03-23T07:05:10;39.72;;;26.48;;
40244;SDS011;25963;42.694;23.600;2023-03-23T07:07:36;38.55;;;26.08;;
40244;SDS011;25963;42.694;23.600;2023-03-23T07:10:03;39.65;;;27.00;;
40244;SDS011;25963;42.694;23.600;2023-03-23T07:12:30;40.42;;;26.35;;
40244;SDS011;25963;42.694;23.600;2023-03-23T07:14:55;37.22;;;25.45;;
40244;SDS011;25963;42.694;23.600;2023-03-23T07:17:21;39.08;;;26.20;;
40244;SDS011;25963;42.694;23.600;2023-03-23T07:19:46;38.60;;;26.38;;
40244;SDS011;25963;42.694;23.600;2023-03-23T07:22:12;33.30;;;24.92;;
40244;SDS011;25963;42.694;23.600;2023-03-23T07:24:37;33.10;;;23.63;;
40244;SDS011;25963;42.694;23.600;2023-03-23T07:27:02;32.08;;;23.25;;
40244;SDS011;25963;42.694;23.600;2023-03-23T07:29:28;31.00;;;23.15;;
40244;SDS011;25963;42.694;23.600;2023-03-23T07:31:54;36.17;;;26.23;;
40244;SDS011;25963;42.694;23.600;2023-03-23T07:34:21;39.13;;;28.10;;
40244;SDS011;25963;42.694;23.600;2023-03-23T07:36:47;45.65;;;32.10;;
40244;SDS011;25963;42.694;23.600;2023-03-23T07:39:13;32.97;;;24.80;;
40244;SDS011;25963;42.694;23.600;2023-03-23T07:41:39;41.47;;;27.70;;
40244;SDS011;25963;42.694;23.600;2023-03-23T07:44:04;36.40;;;25.67;;
40244;SDS011;25963;42.694;23.600;2023-03-23T07:46:30;32.63;;;25.63;;
40244;SDS011;25963;42.694;23.600;2023-03-23T07:48:56;32.78;;;24.80;;
40244;SDS011;25963;42.694;23.600;2023-03-23T07:51:22;29.75;;;23.85;;
40244;SDS011;25963;42.694;23.600;2023-03-23T07:53:50;32.38;;;24.58;;
40244;SDS011;25963;42.694;23.600;2023-03-23T07:56:16;34.80;;;26.58;;
40244;SDS011;25963;42.694;23.600;2023-03-23T07:58:47;51.00;;;36.22;;
40244;SDS011;25963;42.694;23.600;2023-03-23T08:01:13;33.58;;;25.98;;
40244;SDS011;25963;42.694;23.600;2023-03-23T08:03:39;32.55;;;24.35;;
40244;SDS011;25963;42.694;23.600;2023-03-23T08:06:05;31.75;;;24.42;;
40244;SDS011;25963;42.694;23.600;2023-03-23T08:08:31;38.30;;;28.23;;
40244;SDS011;25963;42.694;23.600;2023-03-23T08:10:57;37.72;;;27.45;;
40244;SDS011;25963;42.694;23.600;2023-03-23T08:13:22;29.88;;;23.58;;
40244;SDS011;25963;42.694;23.600;2023-03-23T08:15:48;37.65;;;28.13;;
40244;SDS011;25963;42.694;23.600;2023-03-23T08:18:14;35.00;;;26.67;;
40244;SDS011;25963;42.694;23.600;2023-03-23T08:20:40;33.15;;;24.45;;
40244;SDS011;25963;42.694;23.600;2023-03-23T08:23:05;35.15;;;24.92;;
40244;SDS011;25963;42.694;23.600;2023-03-23T08:25:31;32.67;;;24.05;;
40244;SDS011;25963;42.694;23.600;2023-03-23T08:27:57;32.28;;;25.40;;
40244;SDS011;25963;42.694;23.600;2023-03-23T08:30:23;42.40;;;31.10;;
40244;SDS011;25963;42.694;23.600;2023-03-23T08:32:51;30.52;;;23.95;;
40244;SDS011;25963;42.694;23.600;2023-03-23T08:35:17;35.47;;;24.67;;
40244;SDS011;25963;42.694;23.600;2023-03-23T08:37:44;30.88;;;23.95;;
40244;SDS011;25963;42.694;23.600;2023-03-23T08:40:11;38.28;;;29.10;;
40244;SDS011;25963;42.694;23.600;2023-03-23T08:42:40;37.15;;;26.60;;
40244;SDS011;25963;42.694;23.600;2023-03-23T08:45:08;33.67;;;26.17;;
40244;SDS011;25963;42.694;23.600;2023-03-23T08:47:35;28.67;;;21.65;;
40244;SDS011;25963;42.694;23.600;2023-03-23T08:50:05;25.05;;;17.83;;
40244;SDS011;25963;42.694;23.600;2023-03-23T08:52:31;35.25;;;26.90;;
40244;SDS011;25963;42.694;23.600;2023-03-23T08:54:57;28.65;;;22.73;;
40244;SDS011;25963;42.694;23.600;2023-03-23T08:57:23;23.67;;;18.80;;
40244;SDS011;25963;42.694;23.600;2023-03-23T08:59:49;24.40;;;19.33;;
40244;SDS011;25963;42.694;23.600;2023-03-23T09:02:16;25.08;;;20.50;;
40244;SDS011;25963;42.694;23.600;2023-03-23T09:04:42;20.83;;;16.77;;
40244;SDS011;25963;42.694;23.600;2023-03-23T09:07:09;22.08;;;18.67;;
40244;SDS011;25963;42.694;23.600;2023-03-23T09:09:36;23.85;;;19.88;;
40244;SDS011;25963;42.694;23.600;2023-03-23T09:12:02;20.63;;;17.42;;
40244;SDS011;25963;42.694;23.600;2023-03-23T09:14:28;17.02;;;14.63;;
40244;SDS011;25963;42.694;23.600;2023-03-23T09:16:53;15.43;;;12.75;;
40244;SDS011;25963;42.694;23.600;2023-03-23T09:19:19;19.40;;;16.55;;
40244;SDS011;25963;42.694;23.600;2023-03-23T09:21:45;16.08;;;14.02;;
40244;SDS011;25963;42.694;23.600;2023-03-23T09:24:10;23.40;;;18.23;;
40244;SDS011;25963;42.694;23.600;2023-03-23T09:26:36;21.10;;;17.05;;
40244;SDS011;25963;42.694;23.600;2023-03-23T09:29:01;22.67;;;17.83;;
40244;SDS011;25963;42.694;23.600;2023-03-23T09:31:27;22.42;;;16.30;;
40244;SDS011;25963;42.694;23.600;2023-03-23T09:33:54;21.50;;;16.70;;
40244;SDS011;25963;42.694;23.600;2023-03-23T09:36:21;26.85;;;19.00;;
40244;SDS011;25963;42.694;23.600;2023-03-23T09:38:48;18.25;;;15.95;;
40244;SDS011;25963;42.694;23.600;2023-03-23T09:41:26;22.10;;;15.77;;
40244;SDS011;25963;42.694;23.600;2023-03-23T09:49:13;17.38;;;13.27;;
40244;SDS011;25963;42.694;23.600;2023-03-23T09:51:46;21.15;;;15.25;;
40244;SDS011;25963;42.694;23.600;2023-03-23T09:56:57;16.95;;;14.00;;
40244;SDS011;25963;42.694;23.600;2023-03-23T09:59:39;18.70;;;13.55;;
40244;SDS011;25963;42.694;23.600;2023-03-23T10:02:13;15.43;;;13.68;;
40244;SDS011;25963;42.694;23.600;2023-03-23T10:04:55;24.10;;;19.50;;
40244;SDS011;25963;42.694;23.600;2023-03-23T10:07:26;18.00;;;13.25;;
40244;SDS011;25963;42.694;23.600;2023-03-23T10:09:54;16.48;;;12.23;;
40244;SDS011;25963;42.694;23.600;2023-03-23T10:13:08;14.10;;;11.82;;
40244;SDS011;25963;42.694;23.600;2023-03-23T10:15:21;19.27;;;13.88;;
40244;SDS011;25963;42.694;23.600;2023-03-23T10:25:47;20.67;;;17.23;;
40244;SDS011;25963;42.694;23.600;2023-03-23T10:28:21;44.80;;;31.58;;
40244;SDS011;25963;42.694;23.600;2023-03-23T10:30:53;28.05;;;18.85;;
40244;SDS011;25963;42.694;23.600;2023-03-23T10:33:38;11.75;;;10.20;;
40244;SDS011;25963;42.694;23.600;2023-03-23T10:36:14;15.07;;;13.45;;
40244;SDS011;25963;42.694;23.600;2023-03-23T10:38:54;14.07;;;11.00;;
40244;SDS011;25963;42.694;23.600;2023-03-23T10:41:25;14.48;;;11.07;;
40244;SDS011;25963;42.694;23.600;2023-03-23T10:43:51;15.90;;;11.27;;
40244;SDS011;25963;42.694;23.600;2023-03-23T10:46:32;12.45;;;10.80;;
40244;SDS011;25963;42.694;23.600;2023-03-23T10:49:14;13.05;;;10.60;;
40244;SDS011;25963;42.694;23.600;2023-03-23T10:51:54;13.15;;;10.68;;
40244;SDS011;25963;42.694;23.600;2023-03-23T10:54:31;15.20;;;13.13;;
40244;SDS011;25963;42.694;23.600;2023-03-23T10:57:11;13.05;;;11.15;;
40244;SDS011;25963;42.694;23.600;2023-03-23T10:59:48;12.57;;;9.77;;
40244;SDS011;25963;42.694;23.600;2023-03-23T11:02:16;14.68;;;11.40;;
40244;SDS011;25963;42.694;23.600;2023-03-23T11:04:54;23.33;;;13.88;;
40244;SDS011;25963;42.694;23.600;2023-03-23T11:07:25;14.73;;;11.98;;
40244;SDS011;25963;42.694;23.600;2023-03-23T11:09:55;17.33;;;12.40;;
40244;SDS011;25963;42.694;23.600;2023-03-23T11:12:23;13.35;;;11.25;;
40244;SDS011;25963;42.694;23.600;2023-03-23T11:14:49;14.85;;;11.40;;
40244;SDS011;25963;42.694;23.600;2023-03-23T11:17:33;14.93;;;12.50;;
40244;SDS011;25963;42.694;23.600;2023-03-23T11:20:09;12.77;;;11.27;;
40244;SDS011;25963;42.694;23.600;2023-03-23T11:22:35;21.35;;;15.45;;
40244;SDS011;25963;42.694;23.600;2023-03-23T11:25:02;18.80;;;12.45;;
40244;SDS011;25963;42.694;23.600;2023-03-23T11:27:29;11.55;;;10.10;;
40244;SDS011;25963;42.694;23.600;2023-03-23T11:30:00;13.38;;;11.75;;
40244;SDS011;25963;42.694;23.600;2023-03-23T11:32:44;13.02;;;11.70;;
40244;SDS011;25963;42.694;23.600;2023-03-23T11:35:15;12.60;;;11.30;;
40244;SDS011;25963;42.694;23.600;2023-03-23T11:37:50;11.90;;;10.55;;
40244;SDS011;25963;42.694;23.600;2023-03-23T11:40:21;10.05;;;9.00;;
40244;SDS011;25963;42.694;23.600;2023-03-23T11:42:56;15.82;;;13.02;;
40244;SDS011;25963;42.694;23.600;2023-03-23T11:45:37;13.95;;;11.05;;
40244;SDS011;25963;42.694;23.600;2023-03-23T11:51:08;13.38;;;10.60;;
40244;SDS011;25963;42.694;23.600;2023-03-23T11:58:56;15.23;;;10.32;;
40244;SDS011;25963;42.694;23.600;2023-03-23T12:04:00;15.52;;;11.18;;
40244;SDS011;25963;42.694;23.600;2023-03-23T12:14:38;13.93;;;12.13;;
40244;SDS011;25963;42.694;23.600;2023-03-23T12:22:42;9.93;;;8.93;;
40244;SDS011;25963;42.694;23.600;2023-03-23T12:25:41;19.15;;;13.32;;
40244;SDS011;25963;42.694;23.600;2023-03-23T12:34:52;11.38;;;9.45;;
40244;SDS011;25963;42.694;23.600;2023-03-23T12:37:35;145.15;;;132.30;;
40244;SDS011;25963;42.694;23.600;2023-03-23T12:40:27;15.32;;;12.13;;
40244;SDS011;25963;42.694;23.600;2023-03-23T12:43:51;15.20;;;11.35;;
40244;SDS011;25963;42.694;23.600;2023-03-23T12:48:32;9.82;;;8.82;;
40244;SDS011;25963;42.694;23.600;2023-03-23T12:54:03;10.52;;;8.23;;
40244;SDS011;25963;42.694;23.600;2023-03-23T12:59:03;8.82;;;7.15;;
40244;SDS011;25963;42.694;23.600;2023-03-23T13:01:57;9.38;;;7.75;;
40244;SDS011;25963;42.694;23.600;2023-03-23T13:04:30;18.92;;;14.00;;
40244;SDS011;25963;42.694;23.600;2023-03-23T13:07:18;21.33;;;14.63;;
40244;SDS011;25963;42.694;23.600;2023-03-23T13:09:53;10.93;;;8.73;;
40244;SDS011;25963;42.694;23.600;2023-03-23T13:12:29;9.98;;;6.70;;
40244;SDS011;25963;42.694;23.600;2023-03-23T13:14:58;10.15;;;7.70;;
40244;SDS011;25963;42.694;23.600;2023-03-23T13:17:35;7.88;;;6.38;;
40244;SDS011;25963;42.694;23.600;2023-03-23T13:28:28;8.57;;;6.30;;
40244;SDS011;25963;42.694;23.600;2023-03-23T13:31:00;9.95;;;6.47;;
40244;SDS011;25963;42.694;23.600;2023-03-23T13:33:34;10.02;;;6.93;;
40244;SDS011;25963;42.694;23.600;2023-03-23T13:36:07;10.80;;;6.88;;
40244;SDS011;25963;42.694;23.600;2023-03-23T13:38:37;12.57;;;8.95;;
40244;SDS011;25963;42.694;23.600;2023-03-23T13:41:10;7.45;;;5.95;;
40244;SDS011;25963;42.694;23.600;2023-03-23T13:43:38;7.82;;;6.70;;
40244;SDS011;25963;42.694;23.600;2023-03-23T13:46:09;11.23;;;8.50;;
40244;SDS011;25963;42.694;23.600;2023-03-23T13:48:50;10.93;;;7.63;;
40244;SDS011;25963;42.694;23.600;2023-03-23T13:51:47;10.27;;;7.18;;
40244;SDS011;25963;42.694;23.600;2023-03-23T13:54:29;8.60;;;7.07;;
40244;SDS011;25963;42.694;23.600;2023-03-23T14:08:01;9.20;;;6.88;;
40244;SDS011;25963;42.694;23.600;2023-03-23T14:10:34;9.50;;;7.25;;
40244;SDS011;25963;42.694;23.600;2023-03-23T14:13:03;7.55;;;5.65;;
40244;SDS011;25963;42.694;23.600;2023-03-23T14:15:53;9.00;;;6.97;;
40244;SDS011;25963;42.694;23.600;2023-03-23T14:18:30;8.02;;;6.90;;
40244;SDS011;25963;42.694;23.600;2023-03-23T14:21:01;6.57;;;5.95;;
40244;SDS011;25963;42.694;23.600;2023-03-23T14:23:27;7.25;;;5.65;;
40244;SDS011;25963;42.694;23.600;2023-03-23T14:26:11;9.00;;;6.20;;
40244;SDS011;25963;42.694;23.600;2023-03-23T14:28:43;6.07;;;5.40;;
40244;SDS011;25963;42.694;23.600;2023-03-23T14:31:20;8.48;;;6.75;;
40244;SDS011;25963;42.694;23.600;2023-03-23T14:33:48;8.95;;;6.10;;
40244;SDS011;25963;42.694;23.600;2023-03-23T14:36:24;6.32;;;5.60;;
40244;SDS011;25963;42.694;23.600;2023-03-23T14:39:05;12.77;;;5.72;;
40244;SDS011;25963;42.694;23.600;2023-03-23T14:41:50;6.80;;;5.30;;
40244;SDS011;25963;42.694;23.600;2023-03-23T14:44:21;9.77;;;8.07;;
40244;SDS011;25963;42.694;23.600;2023-03-23T14:46:50;6.30;;;5.05;;
40244;SDS011;25963;42.694;23.600;2023-03-23T14:49:27;8.20;;;5.88;;
40244;SDS011;25963;42.694;23.600;2023-03-23T14:52:12;8.13;;;5.97;;
40244;SDS011;25963;42.694;23.600;2023-03-23T14:54:43;9.38;;;6.40;;
40244;SDS011;25963;42.694;23.600;2023-03-23T14:57:13;6.60;;;5.90;;
40244;SDS011;25963;42.694;23.600;2023-03-23T14:59:40;6.60;;;5.90;;
40244;SDS011;25963;42.694;23.600;2023-03-23T15:02:09;7.43;;;5.95;;
40244;SDS011;25963;42.694;23.600;2023-03-23T15:04:46;8.65;;;6.18;;
40244;SDS011;25963;42.694;23.600;2023-03-23T15:07:15;9.38;;;7.00;;
40244;SDS011;25963;42.694;23.600;2023-03-23T15:09:43;11.23;;;8.10;;
40244;SDS011;25963;42.694;23.600;2023-03-23T15:12:19;8.35;;;7.25;;
40244;SDS011;25963;42.694;23.600;2023-03-23T15:14:48;9.38;;;8.30;;
40244;SDS011;25963;42.694;23.600;2023-03-23T15:17:28;16.38;;;9.48;;
40244;SDS011;25963;42.694;23.600;2023-03-23T15:27:55;10.13;;;7.47;;
40244;SDS011;25963;42.694;23.600;2023-03-23T15:32:47;7.85;;;6.13;;
40244;SDS011;25963;42.694;23.600;2023-03-23T15:35:16;21.00;;;14.38;;
40244;SDS011;25963;42.694;23.600;2023-03-23T15:37:44;17.10;;;11.18;;
40244;SDS011;25963;42.694;23.600;2023-03-23T15:40:17;13.80;;;8.60;;
40244;SDS011;25963;42.694;23.600;2023-03-23T15:42:45;16.08;;;11.45;;
40244;SDS011;25963;42.694;23.600;2023-03-23T15:50:16;9.05;;;7.53;;
40244;SDS011;25963;42.694;23.600;2023-03-23T15:52:44;12.85;;;8.68;;
40244;SDS011;25963;42.694;23.600;2023-03-23T15:58:00;9.25;;;7.47;;
40244;SDS011;25963;42.694;23.600;2023-03-23T16:00:30;21.58;;;15.68;;
40244;SDS011;25963;42.694;23.600;2023-03-23T16:02:59;8.05;;;6.43;;
40244;SDS011;25963;42.694;23.600;2023-03-23T16:05:26;8.68;;;7.28;;
40244;SDS011;25963;42.694;23.600;2023-03-23T16:07:52;9.05;;;7.05;;
40244;SDS011;25963;42.694;23.600;2023-03-23T16:10:30;10.45;;;7.90;;
40244;SDS011;25963;42.694;23.600;2023-03-23T16:12:55;8.75;;;6.40;;
40244;SDS011;25963;42.694;23.600;2023-03-23T16:15:21;9.20;;;7.03;;
40244;SDS011;25963;42.694;23.600;2023-03-23T16:17:46;9.10;;;8.00;;
40244;SDS011;25963;42.694;23.600;2023-03-23T16:20:13;15.15;;;9.50;;
40244;SDS011;25963;42.694;23.600;2023-03-23T16:22:46;12.95;;;9.38;;
40244;SDS011;25963;42.694;23.600;2023-03-23T16:25:13;16.58;;;12.95;;